createdAt,value
2022-11-21T00:01:26.788Z,49.67
2022-11-21T00:03:54.133Z,44.67
2022-11-21T00:06:21.857Z,45.25
2022-11-21T00:08:49.034Z,44.63
2022-11-21T00:11:16.383Z,44.03
2022-11-21T00:13:44.241Z,41.83
2022-11-21T00:16:14.074Z,43.47
2022-11-21T00:18:42.615Z,48.50
2022-11-21T00:21:17.345Z,43.90
2022-11-21T00:23:45.899Z,42.72
2022-11-21T00:26:14.127Z,42.67
2022-11-21T00:28:41.229Z,40.00
2022-11-21T00:31:08.888Z,41.85
2022-11-21T00:33:37.358Z,38.80
2022-11-21T00:36:08.813Z,39.85
2022-11-21T00:38:35.981Z,39.22
2022-11-21T00:41:03.189Z,38.22
2022-11-21T00:43:29.959Z,37.97
2022-11-21T00:45:57.201Z,39.28
2022-11-21T00:48:24.488Z,41.42
2022-11-21T00:50:51.307Z,43.30
2022-11-21T00:53:18.412Z,43.05
2022-11-21T00:55:45.228Z,45.75
2022-11-21T00:58:12.296Z,45.40
2022-11-21T01:00:39.094Z,41.63
2022-11-21T01:03:05.915Z,44.47
2022-11-21T01:05:33.655Z,36.55
2022-11-21T01:08:00.857Z,35.53
2022-11-21T01:10:27.605Z,38.10
2022-11-21T01:12:54.413Z,35.85
2022-11-21T01:15:21.170Z,35.80
2022-11-21T01:17:48.362Z,39.42
2022-11-21T01:20:15.217Z,36.35
2022-11-21T01:22:42.428Z,37.65
2022-11-21T01:25:09.348Z,33.42
2022-11-21T01:27:36.315Z,35.10
2022-11-21T01:30:03.650Z,32.17
2022-11-21T01:32:30.420Z,34.63
2022-11-21T01:34:57.196Z,33.70
2022-11-21T01:37:24.036Z,33.80
2022-11-21T01:39:50.832Z,35.42
2022-11-21T01:42:18.163Z,33.85
2022-11-21T01:44:51.259Z,32.80
2022-11-21T01:47:18.484Z,31.25
2022-11-21T01:49:46.919Z,30.50
2022-11-21T01:52:26.542Z,32.28
2022-11-21T01:54:56.443Z,28.17
2022-11-21T01:57:35.446Z,32.67
2022-11-21T02:00:06.185Z,30.63
2022-11-21T02:02:37.183Z,34.25
2022-11-21T02:05:07.087Z,32.80
2022-11-21T02:07:40.033Z,32.30
2022-11-21T02:10:08.851Z,31.15
2022-11-21T02:12:52.058Z,30.42
2022-11-21T02:15:20.496Z,33.25
2022-11-21T02:17:47.775Z,32.67
2022-11-21T02:20:17.173Z,31.10
2022-11-21T02:22:58.682Z,32.22
2022-11-21T02:25:30.651Z,29.27
2022-11-21T02:28:05.919Z,29.40
2022-11-21T02:30:35.276Z,30.50
2022-11-21T02:33:02.814Z,29.10
2022-11-21T02:35:29.752Z,32.40
2022-11-21T02:38:20.698Z,31.75
2022-11-21T02:41:08.974Z,30.88
2022-11-21T02:43:45.050Z,29.85
2022-11-21T02:46:12.284Z,26.95
2022-11-21T02:48:39.329Z,27.73
2022-11-21T02:51:06.713Z,28.73
2022-11-21T02:53:33.957Z,29.77
2022-11-21T02:56:01.222Z,28.83
2022-11-21T02:58:28.484Z,27.30
2022-11-21T03:00:55.523Z,28.63
2022-11-21T03:03:23.012Z,25.90
2022-11-21T03:05:49.954Z,26.17
2022-11-21T03:08:17.107Z,28.02
2022-11-21T03:10:44.260Z,29.33
2022-11-21T03:13:11.046Z,24.67
2022-11-21T03:15:37.826Z,27.75
2022-11-21T03:18:05.586Z,25.23
2022-11-21T03:20:34.766Z,29.38
2022-11-21T03:23:02.814Z,27.23
2022-11-21T03:25:29.771Z,26.70
2022-11-21T03:27:56.548Z,26.15
2022-11-21T03:30:25.724Z,27.38
2022-11-21T03:32:56.560Z,27.50
2022-11-21T03:35:23.597Z,24.92
2022-11-21T03:37:50.478Z,27.15
2022-11-21T03:40:17.258Z,29.35
2022-11-21T03:42:44.616Z,26.58
2022-11-21T03:45:11.418Z,27.85
2022-11-21T03:47:38.670Z,30.65
2022-11-21T03:50:05.763Z,26.45
2022-11-21T03:52:32.836Z,26.75
2022-11-21T03:55:00.269Z,27.80
2022-11-21T03:57:27.191Z,29.77
2022-11-21T03:59:54.368Z,30.88
2022-11-21T04:02:21.145Z,28.80
2022-11-21T04:04:48.040Z,31.42
2022-11-21T04:07:15.305Z,31.77
2022-11-21T04:09:42.365Z,28.73
2022-11-21T04:12:09.121Z,29.35
2022-11-21T04:14:36.257Z,29.27
2022-11-21T04:17:03.045Z,27.65
2022-11-21T04:19:29.826Z,29.30
2022-11-21T04:21:56.661Z,28.70
2022-11-21T04:24:23.565Z,31.00
2022-11-21T04:26:50.931Z,30.50
2022-11-21T04:29:17.689Z,27.20
2022-11-21T04:31:44.915Z,28.98
2022-11-21T04:34:12.703Z,30.80
2022-11-21T04:36:39.520Z,30.98
2022-11-21T04:39:06.845Z,28.90
2022-11-21T04:41:33.668Z,30.90
2022-11-21T04:44:00.433Z,30.67
2022-11-21T04:46:27.797Z,30.15
2022-11-21T04:48:54.609Z,28.98
2022-11-21T04:51:21.852Z,31.23
2022-11-21T04:53:48.603Z,30.33
2022-11-21T04:56:16.645Z,32.47
2022-11-21T04:58:45.144Z,31.75
2022-11-21T05:01:12.744Z,30.63
2022-11-21T05:03:39.654Z,29.88
2022-11-21T05:06:06.417Z,31.55
2022-11-21T05:08:33.237Z,31.20
2022-11-21T05:11:19.132Z,33.13
2022-11-21T05:13:46.382Z,33.47
2022-11-21T05:16:13.549Z,31.73
2022-11-21T05:18:40.332Z,30.27
2022-11-21T05:21:07.535Z,28.90
2022-11-21T05:23:34.293Z,32.40
2022-11-21T05:26:01.084Z,30.70
2022-11-21T05:28:28.344Z,31.15
2022-11-21T05:30:55.613Z,31.70
2022-11-21T05:33:22.421Z,30.88
2022-11-21T05:35:50.977Z,31.95
2022-11-21T05:38:18.246Z,30.52
2022-11-21T05:40:45.044Z,28.88
2022-11-21T05:43:31.049Z,29.67
2022-11-21T05:45:58.550Z,27.67
2022-11-21T05:48:25.344Z,29.13
2022-11-21T05:50:52.594Z,30.55
2022-11-21T05:53:19.594Z,29.33
2022-11-21T05:55:46.945Z,27.30
2022-11-21T05:58:14.164Z,28.48
2022-11-21T06:00:43.219Z,28.73
2022-11-21T06:03:30.604Z,32.20
2022-11-21T06:06:14.190Z,29.50
2022-11-21T06:08:48.630Z,28.83
2022-11-21T06:11:17.876Z,29.38
2022-11-21T06:13:44.883Z,31.08
2022-11-21T06:16:17.350Z,25.73
2022-11-21T06:18:45.971Z,28.35
2022-11-21T06:21:22.153Z,26.85
2022-11-21T06:23:52.976Z,27.20
2022-11-21T06:26:22.057Z,28.88
2022-11-21T06:28:49.981Z,28.85
2022-11-21T06:31:19.696Z,27.42
2022-11-21T06:33:47.207Z,27.40
2022-11-21T06:36:16.757Z,27.92
2022-11-21T06:38:45.208Z,24.92
2022-11-21T06:41:20.901Z,28.08
2022-11-21T06:43:48.000Z,25.95
2022-11-21T06:46:16.244Z,32.45
2022-11-21T06:48:43.674Z,31.20
2022-11-21T06:51:17.107Z,27.35
2022-11-21T06:53:44.622Z,29.25
2022-11-21T06:56:11.387Z,28.52
2022-11-21T06:58:38.326Z,29.50
2022-11-21T07:01:07.396Z,27.23
2022-11-21T07:03:35.462Z,26.67
2022-11-21T07:06:03.193Z,25.30
2022-11-21T07:08:31.272Z,25.02
2022-11-21T07:11:24.580Z,27.42
2022-11-21T07:16:34.703Z,26.20
2022-11-21T07:19:03.246Z,26.67
2022-11-21T07:21:30.092Z,26.00
2022-11-21T07:23:56.919Z,26.30
2022-11-21T07:26:24.883Z,26.33
2022-11-21T07:28:51.652Z,24.48
2022-11-21T07:31:18.833Z,25.13
2022-11-21T07:33:46.949Z,25.27
2022-11-21T07:36:14.529Z,26.70
2022-11-21T07:38:41.918Z,24.95
2022-11-21T07:41:09.717Z,23.15
2022-11-21T07:43:37.115Z,24.80
2022-11-21T07:46:03.881Z,23.95
2022-11-21T07:48:30.663Z,23.85
2022-11-21T07:50:57.977Z,23.33
2022-11-21T07:53:24.756Z,23.65
2022-11-21T07:55:51.502Z,23.65
2022-11-21T07:58:18.753Z,25.77
2022-11-21T08:00:45.653Z,23.10
2022-11-21T08:03:13.714Z,24.20
2022-11-21T08:05:42.800Z,21.45
2022-11-21T08:08:14.297Z,24.70
2022-11-21T08:10:46.276Z,23.73
2022-11-21T08:13:13.820Z,23.48
2022-11-21T08:15:41.605Z,23.13
2022-11-21T08:18:22.448Z,19.27
2022-11-21T08:20:50.721Z,19.13
2022-11-21T08:23:17.796Z,21.08
2022-11-21T08:25:45.267Z,18.73
2022-11-21T08:28:12.809Z,18.48
2022-11-21T08:30:40.759Z,19.45
2022-11-21T08:33:07.638Z,20.15
2022-11-21T08:35:38.192Z,19.83
2022-11-21T08:38:05.931Z,18.00
2022-11-21T08:40:33.370Z,18.55
2022-11-21T08:43:06.030Z,23.92
2022-11-21T08:45:34.224Z,21.00
2022-11-21T08:48:01.452Z,18.73
2022-11-21T08:50:28.309Z,17.85
2022-11-21T08:53:02.003Z,17.58
2022-11-21T08:55:29.746Z,16.20
2022-11-21T08:57:56.992Z,15.57
2022-11-21T09:00:24.011Z,15.48
2022-11-21T09:02:51.277Z,18.00
2022-11-21T09:05:18.168Z,15.63
2022-11-21T09:07:45.486Z,16.80
2022-11-21T09:10:12.922Z,14.98
2022-11-21T09:12:39.713Z,15.50
2022-11-21T09:15:25.610Z,15.82
2022-11-21T09:18:05.135Z,15.38
2022-11-21T09:20:39.885Z,15.27
2022-11-21T09:23:08.264Z,14.32
2022-11-21T09:25:35.091Z,14.20
2022-11-21T09:28:03.072Z,12.88
2022-11-21T09:30:30.290Z,14.35
2022-11-21T09:33:01.680Z,14.45
2022-11-21T09:35:29.490Z,13.02
2022-11-21T09:37:56.326Z,12.00
2022-11-21T09:40:24.236Z,12.88
2022-11-21T09:43:26.826Z,11.27
2022-11-21T09:46:09.851Z,11.18
2022-11-21T09:48:59.152Z,10.52
2022-11-21T09:51:30.944Z,11.43
2022-11-21T09:54:12.097Z,11.05
2022-11-21T09:56:42.098Z,12.07
2022-11-21T09:59:38.962Z,12.63
2022-11-21T10:02:17.244Z,10.80
2022-11-21T10:04:47.199Z,8.95
2022-11-21T10:07:31.273Z,11.23
2022-11-21T10:10:18.911Z,11.52
2022-11-21T10:13:24.385Z,11.45
2022-11-21T10:16:11.437Z,9.70
2022-11-21T10:19:17.935Z,8.50
2022-11-21T10:22:07.531Z,9.65
2022-11-21T10:24:55.715Z,9.98
2022-11-21T10:27:39.599Z,8.32
2022-11-21T10:30:14.488Z,7.22
2022-11-21T10:32:45.787Z,8.05
2022-11-21T10:35:21.698Z,8.60
2022-11-21T10:38:01.556Z,7.18
2022-11-21T10:40:37.574Z,9.07
2022-11-21T10:43:35.344Z,6.32
2022-11-21T10:46:02.226Z,7.85
2022-11-21T10:48:29.015Z,7.15
2022-11-21T10:51:14.266Z,7.35
2022-11-21T10:54:06.136Z,7.53
2022-11-21T10:56:35.840Z,8.70
2022-11-21T10:59:27.082Z,8.25
2022-11-21T11:02:21.829Z,7.28
2022-11-21T11:04:52.330Z,10.20
2022-11-21T11:07:25.775Z,8.15
2022-11-21T11:09:59.456Z,9.40
2022-11-21T11:12:48.109Z,7.75
2022-11-21T11:15:21.437Z,7.40
2022-11-21T11:18:13.819Z,7.70
2022-11-21T11:20:44.259Z,6.70
2022-11-21T11:23:17.294Z,6.18
2022-11-21T11:25:49.937Z,5.30
2022-11-21T11:28:19.418Z,6.65
2022-11-21T11:30:47.809Z,5.03
2022-11-21T11:33:35.266Z,5.93
2022-11-21T11:36:14.169Z,6.18
2022-11-21T11:38:56.330Z,7.10
2022-11-21T11:42:13.785Z,7.20
2022-11-21T11:45:14.390Z,6.82
2022-11-21T11:47:55.091Z,7.57
2022-11-21T11:50:41.546Z,6.43
2022-11-21T11:53:38.489Z,5.80
2022-11-21T11:56:12.057Z,5.30
2022-11-21T11:58:53.325Z,5.75
2022-11-21T12:01:35.220Z,4.70
2022-11-21T12:04:13.087Z,4.78
2022-11-21T12:09:57.287Z,4.85
2022-11-21T12:12:34.492Z,6.00
2022-11-21T12:15:51.043Z,4.50
2022-11-21T12:18:17.850Z,6.10
2022-11-21T12:21:03.122Z,6.03
2022-11-21T12:24:02.267Z,7.82
2022-11-21T12:26:41.620Z,8.68
2022-11-21T12:29:28.071Z,9.27
2022-11-21T12:31:58.210Z,9.10
2022-11-21T12:35:08.132Z,9.50
2022-11-21T12:38:02.431Z,9.10
2022-11-21T12:40:53.848Z,9.20
2022-11-21T12:44:02.329Z,12.60
2022-11-21T12:46:42.953Z,12.40
2022-11-21T12:49:43.646Z,12.60
2022-11-21T12:52:55.264Z,13.38
2022-11-21T12:55:42.342Z,13.07
2022-11-21T12:58:17.881Z,14.90
2022-11-21T13:01:06.929Z,13.95
2022-11-21T13:03:55.160Z,14.55
2022-11-21T13:06:26.400Z,13.43
2022-11-21T13:08:55.541Z,15.48
2022-11-21T13:11:58.386Z,15.23
2022-11-21T13:14:53.355Z,14.25
2022-11-21T13:17:26.204Z,14.60
2022-11-21T13:20:15.495Z,12.45
2022-11-21T13:22:42.266Z,11.77
2022-11-21T13:25:41.019Z,12.93
2022-11-21T13:28:13.825Z,12.57
2022-11-21T13:30:54.679Z,10.07
2022-11-21T13:33:39.464Z,10.27
2022-11-21T13:36:06.924Z,10.13
2022-11-21T13:38:56.719Z,10.57
2022-11-21T13:41:54.750Z,9.25
2022-11-21T13:44:31.046Z,8.90
2022-11-21T13:47:02.742Z,9.98
2022-11-21T13:49:44.289Z,10.38
2022-11-21T13:52:32.339Z,10.52
2022-11-21T13:55:11.201Z,10.60
2022-11-21T13:57:47.977Z,12.25
2022-11-21T14:00:20.058Z,11.43
2022-11-21T14:03:08.781Z,12.52
2022-11-21T14:05:58.413Z,11.43
2022-11-21T14:08:29.329Z,9.32
2022-11-21T14:10:58.346Z,11.88
2022-11-21T14:13:32.975Z,11.38
2022-11-21T14:16:08.666Z,11.27
2022-11-21T14:18:39.024Z,10.40
2022-11-21T14:21:08.380Z,12.50
2022-11-21T14:23:35.729Z,11.15
2022-11-21T14:26:14.113Z,11.65
2022-11-21T14:28:44.494Z,10.82
2022-11-21T14:31:12.859Z,14.45
2022-11-21T14:33:44.371Z,11.73
2022-11-21T14:36:32.053Z,15.25
2022-11-21T14:39:35.318Z,11.73
2022-11-21T14:41:55.222Z,13.07
2022-11-21T14:44:26.906Z,15.10
2022-11-21T14:47:17.290Z,14.23
2022-11-21T14:49:59.601Z,16.58
2022-11-21T14:52:32.811Z,15.63
2022-11-21T14:55:36.462Z,14.18
2022-11-21T14:58:06.547Z,15.02
2022-11-21T15:03:23.117Z,16.83
2022-11-21T15:06:08.230Z,16.83
2022-11-21T15:09:33.415Z,17.42
2022-11-21T15:11:51.124Z,16.88
2022-11-21T15:14:39.269Z,17.15
2022-11-21T15:17:11.490Z,16.45
2022-11-21T15:19:38.570Z,18.70
2022-11-21T15:22:05.491Z,17.63
2022-11-21T15:24:43.384Z,17.77
2022-11-21T15:27:28.250Z,19.77
2022-11-21T15:30:10.871Z,22.40
2022-11-21T15:32:59.856Z,21.70
2022-11-21T15:35:39.109Z,21.15
2022-11-21T15:38:25.082Z,20.65
2022-11-21T15:41:10.689Z,21.00
2022-11-21T15:43:49.593Z,18.10
2022-11-21T15:46:28.173Z,17.10
2022-11-21T15:48:59.174Z,17.30
2022-11-21T15:52:05.487Z,17.83
2022-11-21T15:54:27.445Z,18.25
2022-11-21T15:56:54.504Z,17.40
2022-11-21T15:59:21.489Z,18.42
2022-11-21T16:01:48.751Z,16.92
2022-11-21T16:04:23.884Z,17.40
2022-11-21T16:06:52.413Z,16.88
2022-11-21T16:09:20.503Z,18.33
2022-11-21T16:11:50.114Z,20.10
2022-11-21T16:14:18.594Z,18.58
2022-11-21T16:16:47.705Z,19.52
2022-11-21T16:19:15.579Z,19.58
2022-11-21T16:21:44.285Z,18.83
2022-11-21T16:24:11.918Z,19.98
2022-11-21T16:26:39.134Z,17.67
2022-11-21T16:29:06.608Z,18.08
2022-11-21T16:31:33.994Z,17.15
2022-11-21T16:34:00.993Z,18.23
2022-11-21T16:36:32.553Z,15.75
2022-11-21T16:39:07.874Z,16.35
2022-11-21T16:41:36.552Z,16.63
2022-11-21T16:44:03.391Z,15.90
2022-11-21T16:46:30.722Z,16.38
2022-11-21T16:49:00.395Z,15.55
2022-11-21T16:51:27.448Z,12.85
2022-11-21T16:53:55.039Z,13.93
2022-11-21T16:56:21.848Z,13.23
2022-11-21T16:58:48.830Z,13.77
2022-11-21T17:01:22.083Z,13.25
2022-11-21T17:03:49.910Z,12.80
2022-11-21T17:06:23.421Z,12.70
2022-11-21T17:08:50.331Z,13.02
2022-11-21T17:11:28.712Z,14.05
2022-11-21T17:13:56.740Z,14.32
2022-11-21T17:16:23.820Z,14.55
2022-11-21T17:18:58.334Z,14.00
2022-11-21T17:21:26.838Z,15.05
2022-11-21T17:23:54.331Z,15.25
2022-11-21T17:26:23.422Z,15.07
2022-11-21T17:28:55.144Z,17.00
2022-11-21T17:31:22.629Z,17.65
2022-11-21T17:33:53.187Z,15.13
2022-11-21T17:36:24.930Z,13.70
2022-11-21T17:38:53.904Z,14.93
2022-11-21T17:41:22.556Z,16.00
2022-11-21T17:43:49.703Z,15.48
2022-11-21T17:46:18.566Z,16.38
2022-11-21T17:48:54.322Z,17.48
2022-11-21T17:51:24.320Z,14.00
2022-11-21T17:53:52.075Z,16.17
2022-11-21T17:56:21.511Z,17.02
2022-11-21T17:58:48.563Z,15.43
2022-11-21T18:01:19.950Z,15.70
2022-11-21T18:04:13.522Z,16.08
2022-11-21T18:06:42.321Z,14.80
2022-11-21T18:09:13.509Z,15.43
2022-11-21T18:11:40.782Z,15.70
2022-11-21T18:14:09.419Z,16.83
2022-11-21T18:16:36.519Z,14.18
2022-11-21T18:19:03.495Z,15.80
2022-11-21T18:21:32.686Z,16.02
2022-11-21T18:24:02.327Z,16.30
2022-11-21T18:26:35.124Z,12.40
2022-11-21T18:31:50.916Z,14.65
2022-11-21T18:34:18.261Z,14.60
2022-11-21T18:36:45.119Z,16.80
2022-11-21T18:39:15.758Z,14.88
2022-11-21T18:41:43.728Z,16.77
2022-11-21T18:44:12.674Z,15.23
2022-11-21T18:46:41.863Z,14.38
2022-11-21T18:49:18.377Z,15.02
2022-11-21T18:51:45.644Z,14.25
2022-11-21T18:54:13.565Z,16.25
2022-11-21T18:56:40.724Z,14.82
2022-11-21T18:59:10.156Z,15.05
2022-11-21T19:01:39.471Z,14.35
2022-11-21T19:04:06.534Z,15.35
2022-11-21T19:06:44.040Z,15.57
2022-11-21T19:09:13.931Z,15.93
2022-11-21T19:11:47.081Z,13.68
2022-11-21T19:14:19.011Z,14.32
2022-11-21T19:16:49.410Z,15.40
2022-11-21T19:25:04.415Z,15.93
2022-11-21T19:27:31.733Z,15.55
2022-11-21T19:30:00.767Z,14.25
2022-11-21T19:32:30.522Z,15.70
2022-11-21T19:35:00.794Z,14.85
2022-11-21T19:37:29.317Z,15.15
2022-11-21T19:39:59.178Z,13.40
2022-11-21T19:42:26.100Z,14.65
2022-11-21T19:44:53.436Z,14.10
2022-11-21T19:47:24.304Z,14.50
2022-11-21T19:49:54.742Z,14.88
2022-11-21T19:52:27.619Z,16.90
2022-11-21T19:54:56.170Z,14.38
2022-11-21T19:57:25.767Z,14.43
2022-11-21T19:59:57.066Z,15.68
2022-11-21T20:02:28.227Z,14.10
2022-11-21T20:04:58.072Z,15.63
2022-11-21T20:07:25.460Z,14.70
2022-11-21T20:09:52.832Z,15.98
2022-11-21T20:12:29.242Z,14.13
2022-11-21T20:14:56.515Z,15.45
2022-11-21T20:17:23.799Z,14.05
2022-11-21T20:19:52.151Z,13.30
2022-11-21T20:22:19.191Z,13.45
2022-11-21T20:24:51.504Z,13.02
2022-11-21T20:27:18.654Z,15.20
2022-11-21T20:29:45.491Z,13.15
2022-11-21T20:32:12.311Z,14.90
2022-11-21T20:34:39.743Z,13.13
2022-11-21T20:37:09.393Z,13.45
2022-11-21T20:39:36.210Z,14.10
2022-11-21T20:42:03.429Z,15.32
2022-11-21T20:47:22.043Z,14.85
2022-11-21T20:49:49.365Z,14.85
2022-11-21T20:53:49.701Z,14.10
2022-11-21T20:55:03.900Z,16.35
2022-11-21T20:57:32.378Z,15.45
2022-11-21T21:00:00.423Z,13.93
2022-11-21T21:02:27.612Z,15.00
2022-11-21T21:04:54.520Z,18.25
2022-11-21T21:07:21.601Z,17.08
2022-11-21T21:09:48.866Z,19.60
2022-11-21T21:12:16.066Z,17.55
2022-11-21T21:14:42.857Z,19.90
2022-11-21T21:17:10.069Z,19.35
2022-11-21T21:19:36.814Z,19.00
2022-11-21T21:22:05.195Z,17.42
2022-11-21T21:24:32.164Z,21.45
2022-11-21T21:26:59.094Z,19.67
2022-11-21T21:29:26.389Z,21.98
2022-11-21T21:31:53.384Z,19.10
2022-11-21T21:34:21.738Z,18.00
2022-11-21T21:36:50.061Z,18.20
2022-11-21T21:39:19.983Z,18.85
2022-11-21T21:41:48.761Z,17.52
2022-11-21T21:44:16.769Z,19.45
2022-11-21T21:46:46.068Z,19.27
2022-11-21T21:49:13.541Z,18.40
2022-11-21T21:51:41.157Z,18.42
2022-11-21T21:54:21.730Z,19.52
2022-11-21T21:56:50.125Z,21.67
2022-11-21T21:59:18.197Z,23.13
2022-11-21T22:01:46.934Z,23.08
2022-11-21T22:04:13.985Z,21.75
2022-11-21T22:06:41.452Z,23.80
2022-11-21T22:09:08.939Z,25.55
2022-11-21T22:11:40.478Z,25.60
2022-11-21T22:14:13.409Z,25.70
2022-11-21T22:16:43.290Z,25.90
2022-11-21T22:19:12.658Z,25.90
2022-11-21T22:21:39.857Z,24.67
2022-11-21T22:24:25.560Z,27.10
2022-11-21T22:26:54.174Z,24.38
2022-11-21T22:29:21.229Z,25.60
2022-11-21T22:31:48.046Z,25.90
2022-11-21T22:34:15.019Z,24.90
2022-11-21T22:36:42.348Z,26.98
2022-11-21T22:39:10.086Z,26.50
2022-11-21T22:41:37.147Z,26.20
2022-11-21T22:44:04.845Z,26.33
2022-11-21T22:46:34.251Z,25.52
2022-11-21T22:49:01.496Z,25.48
2022-11-21T22:51:30.042Z,25.83
2022-11-21T22:53:57.537Z,28.25
2022-11-21T22:56:25.530Z,26.15
2022-11-21T22:58:53.505Z,24.73
2022-11-21T23:01:25.677Z,25.25
2022-11-21T23:03:56.052Z,26.92
2022-11-21T23:06:27.068Z,26.30
2022-11-21T23:08:55.895Z,23.05
2022-11-21T23:11:28.726Z,24.33
2022-11-21T23:13:58.667Z,28.55
2022-11-21T23:16:26.392Z,29.80
2022-11-21T23:18:54.809Z,27.10
2022-11-21T23:21:21.969Z,29.00
2022-11-21T23:23:48.914Z,26.20
2022-11-21T23:26:16.527Z,25.98
2022-11-21T23:28:43.804Z,27.13
2022-11-21T23:31:13.969Z,28.02
2022-11-21T23:33:40.977Z,25.60
2022-11-21T23:36:08.719Z,26.42
2022-11-21T23:38:35.514Z,25.35
2022-11-21T23:41:02.945Z,22.88
2022-11-21T23:43:30.276Z,23.55
2022-11-21T23:46:00.224Z,23.38
2022-11-21T23:48:28.772Z,20.70
2022-11-21T23:50:55.639Z,22.95
2022-11-21T23:53:22.720Z,23.65
2022-11-21T23:55:50.702Z,25.63
2022-11-21T23:58:17.821Z,26.60
